sensor_id;sensor_type;location;lat;lon;timestamp;P1;durP1;ratioP1;P2;durP2;ratioP2
56122;SDS011;42426;46.104;19.656;2023-02-20T00:08:58;3.50;;;2.60;;
56122;SDS011;42426;46.104;19.656;2023-02-20T00:14:45;2.95;;;2.22;;
56122;SDS011;42426;46.104;19.656;2023-02-20T00:20:33;3.28;;;2.60;;
56122;SDS011;42426;46.104;19.656;2023-02-20T00:26:22;4.13;;;3.00;;
56122;SDS011;42426;46.104;19.656;2023-02-20T00:32:09;4.00;;;3.17;;
56122;SDS011;42426;46.104;19.656;2023-02-20T00:37:57;4.90;;;3.75;;
56122;SDS011;42426;46.104;19.656;2023-02-20T00:43:45;4.97;;;3.35;;
56122;SDS011;42426;46.104;19.656;2023-02-20T00:49:32;4.88;;;3.42;;
56122;SDS011;42426;46.104;19.656;2023-02-20T00:55:20;5.32;;;3.67;;
56122;SDS011;42426;46.104;19.656;2023-02-20T01:01:07;6.13;;;3.80;;
56122;SDS011;42426;46.104;19.656;2023-02-20T01:16:18;6.68;;;3.95;;
56122;SDS011;42426;46.104;19.656;2023-02-20T01:22:05;5.88;;;3.70;;
56122;SDS011;42426;46.104;19.656;2023-02-20T01:27:54;6.38;;;4.15;;
56122;SDS011;42426;46.104;19.656;2023-02-20T01:33:42;5.53;;;4.30;;
56122;SDS011;42426;46.104;19.656;2023-02-20T01:39:30;7.78;;;4.30;;
56122;SDS011;42426;46.104;19.656;2023-02-20T01:51:09;4.82;;;4.20;;
56122;SDS011;42426;46.104;19.656;2023-02-20T01:56:57;6.32;;;5.10;;
56122;SDS011;42426;46.104;19.656;2023-02-20T02:02:56;5.55;;;4.10;;
56122;SDS011;42426;46.104;19.656;2023-02-20T02:13:10;5.88;;;4.13;;
56122;SDS011;42426;46.104;19.656;2023-02-20T02:38:37;7.53;;;5.03;;
56122;SDS011;42426;46.104;19.656;2023-02-20T02:45:27;6.32;;;4.95;;
56122;SDS011;42426;46.104;19.656;2023-02-20T03:02:08;7.30;;;5.45;;
56122;SDS011;42426;46.104;19.656;2023-02-20T03:11:33;7.45;;;5.05;;
56122;SDS011;42426;46.104;19.656;2023-02-20T03:23:51;7.35;;;5.00;;
56122;SDS011;42426;46.104;19.656;2023-02-20T03:30:02;6.95;;;5.03;;
56122;SDS011;42426;46.104;19.656;2023-02-20T03:42:53;10.00;;;4.90;;
56122;SDS011;42426;46.104;19.656;2023-02-20T03:49:13;5.88;;;4.78;;
56122;SDS011;42426;46.104;19.656;2023-02-20T03:55:06;8.15;;;5.35;;
56122;SDS011;42426;46.104;19.656;2023-02-20T04:00:55;9.50;;;5.70;;
56122;SDS011;42426;46.104;19.656;2023-02-20T04:06:46;6.60;;;4.57;;
56122;SDS011;42426;46.104;19.656;2023-02-20T04:16:38;6.78;;;4.40;;
56122;SDS011;42426;46.104;19.656;2023-02-20T04:23:07;7.15;;;5.13;;
56122;SDS011;42426;46.104;19.656;2023-02-20T04:29:00;9.50;;;4.93;;
56122;SDS011;42426;46.104;19.656;2023-02-20T04:34:47;7.88;;;5.05;;
56122;SDS011;42426;46.104;19.656;2023-02-20T04:40:35;7.47;;;4.22;;
56122;SDS011;42426;46.104;19.656;2023-02-20T04:46:23;7.28;;;4.72;;
56122;SDS011;42426;46.104;19.656;2023-02-20T04:52:11;10.30;;;4.35;;
56122;SDS011;42426;46.104;19.656;2023-02-20T04:57:58;7.57;;;4.60;;
56122;SDS011;42426;46.104;19.656;2023-02-20T05:03:46;7.15;;;4.85;;
56122;SDS011;42426;46.104;19.656;2023-02-20T05:09:34;6.18;;;4.43;;
56122;SDS011;42426;46.104;19.656;2023-02-20T05:19:22;9.95;;;6.40;;
56122;SDS011;42426;46.104;19.656;2023-02-20T05:25:10;8.68;;;5.53;;
56122;SDS011;42426;46.104;19.656;2023-02-20T05:30:58;8.15;;;5.57;;
56122;SDS011;42426;46.104;19.656;2023-02-20T05:36:45;8.57;;;5.55;;
56122;SDS011;42426;46.104;19.656;2023-02-20T05:42:33;8.98;;;6.75;;
56122;SDS011;42426;46.104;19.656;2023-02-20T05:48:20;9.98;;;6.47;;
56122;SDS011;42426;46.104;19.656;2023-02-20T05:54:08;12.65;;;6.63;;
56122;SDS011;42426;46.104;19.656;2023-02-20T05:59:56;19.98;;;8.13;;
56122;SDS011;42426;46.104;19.656;2023-02-20T06:05:43;11.35;;;7.20;;
56122;SDS011;42426;46.104;19.656;2023-02-20T06:11:31;16.95;;;9.23;;
56122;SDS011;42426;46.104;19.656;2023-02-20T06:21:13;20.80;;;10.48;;
56122;SDS011;42426;46.104;19.656;2023-02-20T06:27:00;17.05;;;8.85;;
56122;SDS011;42426;46.104;19.656;2023-02-20T06:32:47;13.45;;;8.38;;
56122;SDS011;42426;46.104;19.656;2023-02-20T06:38:35;17.77;;;9.77;;
56122;SDS011;42426;46.104;19.656;2023-02-20T06:44:23;14.48;;;8.70;;
56122;SDS011;42426;46.104;19.656;2023-02-20T06:50:10;17.40;;;10.50;;
56122;SDS011;42426;46.104;19.656;2023-02-20T06:55:57;27.08;;;12.73;;
56122;SDS011;42426;46.104;19.656;2023-02-20T07:01:45;20.77;;;11.45;;
56122;SDS011;42426;46.104;19.656;2023-02-20T07:07:33;20.70;;;10.23;;
56122;SDS011;42426;46.104;19.656;2023-02-20T07:13:21;24.00;;;11.75;;
56122;SDS011;42426;46.104;19.656;2023-02-20T07:22:50;13.35;;;8.60;;
56122;SDS011;42426;46.104;19.656;2023-02-20T07:28:57;15.68;;;9.32;;
56122;SDS011;42426;46.104;19.656;2023-02-20T07:34:46;20.10;;;12.10;;
56122;SDS011;42426;46.104;19.656;2023-02-20T07:40:34;30.58;;;15.40;;
56122;SDS011;42426;46.104;19.656;2023-02-20T07:46:21;30.00;;;15.32;;
56122;SDS011;42426;46.104;19.656;2023-02-20T07:52:08;18.52;;;9.32;;
56122;SDS011;42426;46.104;19.656;2023-02-20T08:36:31;7.97;;;5.20;;
56122;SDS011;42426;46.104;19.656;2023-02-20T08:38:57;7.07;;;4.25;;
56122;SDS011;42426;46.104;19.656;2023-02-20T08:41:24;5.80;;;3.50;;
56122;SDS011;42426;46.104;19.656;2023-02-20T08:43:51;8.52;;;5.15;;
56122;SDS011;42426;46.104;19.656;2023-02-20T08:46:16;6.32;;;4.60;;
56122;SDS011;42426;46.104;19.656;2023-02-20T08:48:42;6.00;;;4.65;;
56122;SDS011;42426;46.104;19.656;2023-02-20T08:51:09;7.03;;;4.25;;
56122;SDS011;42426;46.104;19.656;2023-02-20T08:53:36;6.75;;;4.70;;
56122;SDS011;42426;46.104;19.656;2023-02-20T08:56:04;8.30;;;4.47;;
56122;SDS011;42426;46.104;19.656;2023-02-20T08:58:30;5.53;;;3.70;;
56122;SDS011;42426;46.104;19.656;2023-02-20T09:00:56;11.32;;;4.45;;
56122;SDS011;42426;46.104;19.656;2023-02-20T09:03:22;7.95;;;4.72;;
56122;SDS011;42426;46.104;19.656;2023-02-20T09:05:48;8.70;;;5.10;;
56122;SDS011;42426;46.104;19.656;2023-02-20T09:08:14;10.75;;;3.50;;
56122;SDS011;42426;46.104;19.656;2023-02-20T09:10:40;10.85;;;5.65;;
56122;SDS011;42426;46.104;19.656;2023-02-20T09:13:05;8.65;;;4.20;;
56122;SDS011;42426;46.104;19.656;2023-02-20T09:15:31;5.22;;;3.05;;
56122;SDS011;42426;46.104;19.656;2023-02-20T09:18:03;8.23;;;3.70;;
56122;SDS011;42426;46.104;19.656;2023-02-20T09:20:30;8.98;;;4.63;;
56122;SDS011;42426;46.104;19.656;2023-02-20T09:22:57;7.35;;;4.22;;
56122;SDS011;42426;46.104;19.656;2023-02-20T09:25:24;7.78;;;4.72;;
56122;SDS011;42426;46.104;19.656;2023-02-20T09:27:52;6.80;;;4.65;;
56122;SDS011;42426;46.104;19.656;2023-02-20T09:30:18;7.05;;;4.45;;
56122;SDS011;42426;46.104;19.656;2023-02-20T09:32:48;7.20;;;4.72;;
56122;SDS011;42426;46.104;19.656;2023-02-20T09:35:19;10.95;;;4.57;;
56122;SDS011;42426;46.104;19.656;2023-02-20T09:37:47;7.82;;;4.78;;
56122;SDS011;42426;46.104;19.656;2023-02-20T09:40:14;6.55;;;3.78;;
56122;SDS011;42426;46.104;19.656;2023-02-20T09:45:24;6.20;;;3.33;;
56122;SDS011;42426;46.104;19.656;2023-02-20T09:50:29;5.72;;;2.90;;
56122;SDS011;42426;46.104;19.656;2023-02-20T09:56:56;6.35;;;3.92;;
56122;SDS011;42426;46.104;19.656;2023-02-20T10:02:51;4.70;;;3.28;;
56122;SDS011;42426;46.104;19.656;2023-02-20T10:09:05;5.35;;;3.63;;
56122;SDS011;42426;46.104;19.656;2023-02-20T10:14:59;5.95;;;3.85;;
56122;SDS011;42426;46.104;19.656;2023-02-20T10:20:51;12.27;;;10.60;;
56122;SDS011;42426;46.104;19.656;2023-02-20T10:27:11;7.80;;;3.83;;
56122;SDS011;42426;46.104;19.656;2023-02-20T10:29:43;7.88;;;3.92;;
56122;SDS011;42426;46.104;19.656;2023-02-20T10:32:14;5.57;;;3.78;;
56122;SDS011;42426;46.104;19.656;2023-02-20T10:37:37;6.68;;;3.28;;
56122;SDS011;42426;46.104;19.656;2023-02-20T10:43:27;6.75;;;4.47;;
56122;SDS011;42426;46.104;19.656;2023-02-20T10:48:14;5.53;;;3.60;;
56122;SDS011;42426;46.104;19.656;2023-02-20T10:56:04;7.55;;;4.68;;
56122;SDS011;42426;46.104;19.656;2023-02-20T10:59:02;10.43;;;5.57;;
56122;SDS011;42426;46.104;19.656;2023-02-20T11:01:57;7.80;;;4.68;;
56122;SDS011;42426;46.104;19.656;2023-02-20T11:04:30;4.97;;;3.70;;
56122;SDS011;42426;46.104;19.656;2023-02-20T11:07:02;6.80;;;4.22;;
56122;SDS011;42426;46.104;19.656;2023-02-20T11:09:32;6.63;;;5.10;;
56122;SDS011;42426;46.104;19.656;2023-02-20T11:11:59;8.18;;;5.20;;
56122;SDS011;42426;46.104;19.656;2023-02-20T11:14:32;9.05;;;6.00;;
56122;SDS011;42426;46.104;19.656;2023-02-20T11:25:19;9.00;;;5.32;;
56122;SDS011;42426;46.104;19.656;2023-02-20T11:27:50;12.73;;;3.60;;
56122;SDS011;42426;46.104;19.656;2023-02-20T11:30:37;5.65;;;4.40;;
56122;SDS011;42426;46.104;19.656;2023-02-20T11:33:13;8.23;;;4.80;;
56122;SDS011;42426;46.104;19.656;2023-02-20T11:35:43;9.52;;;4.90;;
56122;SDS011;42426;46.104;19.656;2023-02-20T11:40:44;8.23;;;6.30;;
56122;SDS011;42426;46.104;19.656;2023-02-20T11:43:35;17.85;;;10.13;;
56122;SDS011;42426;46.104;19.656;2023-02-20T11:48:36;17.63;;;9.30;;
56122;SDS011;42426;46.104;19.656;2023-02-20T11:51:03;10.60;;;7.45;;
56122;SDS011;42426;46.104;19.656;2023-02-20T11:53:30;8.52;;;3.97;;
56122;SDS011;42426;46.104;19.656;2023-02-20T11:56:13;7.90;;;5.05;;
56122;SDS011;42426;46.104;19.656;2023-02-20T11:58:42;8.38;;;5.85;;
56122;SDS011;42426;46.104;19.656;2023-02-20T12:03:59;10.63;;;5.70;;
56122;SDS011;42426;46.104;19.656;2023-02-20T12:09:01;10.88;;;6.22;;
56122;SDS011;42426;46.104;19.656;2023-02-20T12:11:29;6.30;;;4.47;;
56122;SDS011;42426;46.104;19.656;2023-02-20T12:13:56;7.97;;;4.78;;
56122;SDS011;42426;46.104;19.656;2023-02-20T12:19:08;5.43;;;4.50;;
56122;SDS011;42426;46.104;19.656;2023-02-20T12:30:21;5.05;;;3.78;;
56122;SDS011;42426;46.104;19.656;2023-02-20T12:38:45;7.93;;;4.07;;
56122;SDS011;42426;46.104;19.656;2023-02-20T13:00:52;11.95;;;8.57;;
56122;SDS011;42426;46.104;19.656;2023-02-20T13:06:16;9.98;;;7.60;;
56122;SDS011;42426;46.104;19.656;2023-02-20T13:09:08;11.25;;;7.75;;
56122;SDS011;42426;46.104;19.656;2023-02-20T13:11:42;10.20;;;7.10;;
56122;SDS011;42426;46.104;19.656;2023-02-20T13:16:43;11.23;;;8.10;;
56122;SDS011;42426;46.104;19.656;2023-02-20T13:22:19;8.85;;;6.18;;
56122;SDS011;42426;46.104;19.656;2023-02-20T13:24:45;7.78;;;5.45;;
56122;SDS011;42426;46.104;19.656;2023-02-20T13:27:26;11.20;;;8.65;;
56122;SDS011;42426;46.104;19.656;2023-02-20T13:29:55;13.38;;;9.55;;
56122;SDS011;42426;46.104;19.656;2023-02-20T13:32:30;9.50;;;6.40;;
56122;SDS011;42426;46.104;19.656;2023-02-20T13:38:12;5.78;;;4.45;;
56122;SDS011;42426;46.104;19.656;2023-02-20T13:40:41;7.22;;;5.20;;
56122;SDS011;42426;46.104;19.656;2023-02-20T13:43:27;8.38;;;6.45;;
56122;SDS011;42426;46.104;19.656;2023-02-20T13:56:57;10.23;;;6.93;;
56122;SDS011;42426;46.104;19.656;2023-02-20T13:59:27;31.40;;;18.02;;
56122;SDS011;42426;46.104;19.656;2023-02-20T14:02:12;13.95;;;10.10;;
56122;SDS011;42426;46.104;19.656;2023-02-20T14:04:52;14.25;;;8.15;;
56122;SDS011;42426;46.104;19.656;2023-02-20T14:07:26;25.20;;;12.23;;
56122;SDS011;42426;46.104;19.656;2023-02-20T14:10:06;8.93;;;5.82;;
56122;SDS011;42426;46.104;19.656;2023-02-20T14:12:39;10.23;;;7.65;;
56122;SDS011;42426;46.104;19.656;2023-02-20T14:15:06;10.30;;;6.85;;
56122;SDS011;42426;46.104;19.656;2023-02-20T14:17:32;12.73;;;7.30;;
56122;SDS011;42426;46.104;19.656;2023-02-20T14:20:04;9.13;;;6.95;;
56122;SDS011;42426;46.104;19.656;2023-02-20T14:22:32;9.50;;;6.38;;
56122;SDS011;42426;46.104;19.656;2023-02-20T14:25:19;11.65;;;7.30;;
56122;SDS011;42426;46.104;19.656;2023-02-20T14:27:47;9.15;;;6.90;;
56122;SDS011;42426;46.104;19.656;2023-02-20T14:30:16;16.38;;;9.35;;
56122;SDS011;42426;46.104;19.656;2023-02-20T14:32:44;12.48;;;10.40;;
56122;SDS011;42426;46.104;19.656;2023-02-20T14:40:40;12.77;;;7.35;;
56122;SDS011;42426;46.104;19.656;2023-02-20T14:43:17;13.18;;;6.55;;
56122;SDS011;42426;46.104;19.656;2023-02-20T14:45:46;13.32;;;8.93;;
56122;SDS011;42426;46.104;19.656;2023-02-20T14:48:27;13.60;;;9.68;;
56122;SDS011;42426;46.104;19.656;2023-02-20T14:51:13;16.35;;;9.02;;
56122;SDS011;42426;46.104;19.656;2023-02-20T14:53:42;16.38;;;11.18;;
56122;SDS011;42426;46.104;19.656;2023-02-20T14:56:13;14.18;;;8.85;;
56122;SDS011;42426;46.104;19.656;2023-02-20T14:58:41;18.83;;;11.77;;
56122;SDS011;42426;46.104;19.656;2023-02-20T15:01:14;16.90;;;11.30;;
56122;SDS011;42426;46.104;19.656;2023-02-20T15:03:42;16.23;;;10.57;;
56122;SDS011;42426;46.104;19.656;2023-02-20T15:06:40;21.40;;;12.05;;
56122;SDS011;42426;46.104;19.656;2023-02-20T15:09:08;22.70;;;12.60;;
56122;SDS011;42426;46.104;19.656;2023-02-20T15:11:35;17.85;;;12.52;;
56122;SDS011;42426;46.104;19.656;2023-02-20T15:14:22;19.88;;;10.38;;
56122;SDS011;42426;46.104;19.656;2023-02-20T15:17:07;15.52;;;10.55;;
56122;SDS011;42426;46.104;19.656;2023-02-20T15:19:44;12.73;;;9.15;;
56122;SDS011;42426;46.104;19.656;2023-02-20T15:22:30;13.25;;;9.27;;
56122;SDS011;42426;46.104;19.656;2023-02-20T15:25:10;22.73;;;14.75;;
56122;SDS011;42426;46.104;19.656;2023-02-20T15:28:08;32.25;;;18.35;;
56122;SDS011;42426;46.104;19.656;2023-02-20T15:33:51;14.05;;;10.07;;
56122;SDS011;42426;46.104;19.656;2023-02-20T15:36:19;19.48;;;13.10;;
56122;SDS011;42426;46.104;19.656;2023-02-20T15:38:51;17.52;;;12.65;;
56122;SDS011;42426;46.104;19.656;2023-02-20T15:41:18;21.17;;;15.43;;
56122;SDS011;42426;46.104;19.656;2023-02-20T15:43:46;17.77;;;13.02;;
56122;SDS011;42426;46.104;19.656;2023-02-20T15:46:12;22.63;;;12.98;;
56122;SDS011;42426;46.104;19.656;2023-02-20T15:48:39;19.65;;;14.15;;
56122;SDS011;42426;46.104;19.656;2023-02-20T15:51:05;21.02;;;13.93;;
56122;SDS011;42426;46.104;19.656;2023-02-20T15:53:30;24.55;;;15.07;;
56122;SDS011;42426;46.104;19.656;2023-02-20T15:55:57;29.38;;;15.70;;
56122;SDS011;42426;46.104;19.656;2023-02-20T15:58:28;25.67;;;15.93;;
56122;SDS011;42426;46.104;19.656;2023-02-20T16:00:58;22.63;;;14.10;;
56122;SDS011;42426;46.104;19.656;2023-02-20T16:03:25;20.48;;;13.18;;
56122;SDS011;42426;46.104;19.656;2023-02-20T16:05:52;28.70;;;13.50;;
56122;SDS011;42426;46.104;19.656;2023-02-20T16:08:19;27.40;;;16.05;;
56122;SDS011;42426;46.104;19.656;2023-02-20T16:10:46;26.88;;;15.18;;
56122;SDS011;42426;46.104;19.656;2023-02-20T16:15:52;26.23;;;15.35;;
56122;SDS011;42426;46.104;19.656;2023-02-20T16:18:20;24.05;;;12.85;;
56122;SDS011;42426;46.104;19.656;2023-02-20T16:20:45;21.20;;;13.32;;
56122;SDS011;42426;46.104;19.656;2023-02-20T16:23:11;20.48;;;13.05;;
56122;SDS011;42426;46.104;19.656;2023-02-20T16:25:37;22.13;;;13.73;;
56122;SDS011;42426;46.104;19.656;2023-02-20T16:28:04;28.83;;;16.80;;
56122;SDS011;42426;46.104;19.656;2023-02-20T16:30:35;38.75;;;22.23;;
56122;SDS011;42426;46.104;19.656;2023-02-20T16:33:14;46.83;;;30.58;;
56122;SDS011;42426;46.104;19.656;2023-02-20T16:35:44;58.15;;;34.65;;
56122;SDS011;42426;46.104;19.656;2023-02-20T16:38:11;64.35;;;39.92;;
56122;SDS011;42426;46.104;19.656;2023-02-20T16:40:37;69.53;;;39.20;;
56122;SDS011;42426;46.104;19.656;2023-02-20T16:43:04;57.80;;;37.78;;
56122;SDS011;42426;46.104;19.656;2023-02-20T16:45:30;57.58;;;35.08;;
56122;SDS011;42426;46.104;19.656;2023-02-20T16:47:57;50.53;;;29.40;;
56122;SDS011;42426;46.104;19.656;2023-02-20T16:50:23;50.05;;;29.52;;
56122;SDS011;42426;46.104;19.656;2023-02-20T16:52:54;54.63;;;28.80;;
56122;SDS011;42426;46.104;19.656;2023-02-20T16:55:24;50.15;;;27.02;;
56122;SDS011;42426;46.104;19.656;2023-02-20T16:58:01;47.13;;;27.55;;
56122;SDS011;42426;46.104;19.656;2023-02-20T17:00:32;34.33;;;23.67;;
56122;SDS011;42426;46.104;19.656;2023-02-20T17:03:00;46.53;;;28.60;;
56122;SDS011;42426;46.104;19.656;2023-02-20T17:05:28;43.42;;;27.73;;
56122;SDS011;42426;46.104;19.656;2023-02-20T17:07:55;85.20;;;49.72;;
56122;SDS011;42426;46.104;19.656;2023-02-20T17:10:22;112.03;;;65.28;;
56122;SDS011;42426;46.104;19.656;2023-02-20T17:12:49;77.38;;;45.50;;
56122;SDS011;42426;46.104;19.656;2023-02-20T17:15:16;54.63;;;35.53;;
56122;SDS011;42426;46.104;19.656;2023-02-20T17:17:43;51.13;;;32.75;;
56122;SDS011;42426;46.104;19.656;2023-02-20T17:20:13;65.68;;;40.83;;
56122;SDS011;42426;46.104;19.656;2023-02-20T17:22:40;60.97;;;38.45;;
56122;SDS011;42426;46.104;19.656;2023-02-20T17:25:14;62.90;;;39.15;;
56122;SDS011;42426;46.104;19.656;2023-02-20T17:27:40;108.70;;;64.80;;
56122;SDS011;42426;46.104;19.656;2023-02-20T17:30:06;129.77;;;76.07;;
56122;SDS011;42426;46.104;19.656;2023-02-20T17:32:32;131.98;;;80.68;;
56122;SDS011;42426;46.104;19.656;2023-02-20T17:34:58;122.03;;;71.20;;
56122;SDS011;42426;46.104;19.656;2023-02-20T17:37:24;100.13;;;57.13;;
56122;SDS011;42426;46.104;19.656;2023-02-20T17:39:54;83.68;;;52.30;;
56122;SDS011;42426;46.104;19.656;2023-02-20T17:42:26;68.05;;;40.50;;
56122;SDS011;42426;46.104;19.656;2023-02-20T17:44:52;66.38;;;38.33;;
56122;SDS011;42426;46.104;19.656;2023-02-20T17:47:19;61.05;;;36.78;;
56122;SDS011;42426;46.104;19.656;2023-02-20T17:49:47;55.47;;;34.28;;
56122;SDS011;42426;46.104;19.656;2023-02-20T17:52:14;50.40;;;34.55;;
56122;SDS011;42426;46.104;19.656;2023-02-20T17:54:43;53.15;;;35.78;;
56122;SDS011;42426;46.104;19.656;2023-02-20T17:57:12;56.45;;;37.15;;
56122;SDS011;42426;46.104;19.656;2023-02-20T17:59:40;57.42;;;36.33;;
56122;SDS011;42426;46.104;19.656;2023-02-20T18:02:06;53.72;;;33.85;;
56122;SDS011;42426;46.104;19.656;2023-02-20T18:04:33;40.80;;;25.38;;
56122;SDS011;42426;46.104;19.656;2023-02-20T18:06:59;39.65;;;25.75;;
56122;SDS011;42426;46.104;19.656;2023-02-20T18:09:25;44.70;;;30.95;;
56122;SDS011;42426;46.104;19.656;2023-02-20T18:11:51;37.80;;;24.83;;
56122;SDS011;42426;46.104;19.656;2023-02-20T18:14:17;51.55;;;28.13;;
56122;SDS011;42426;46.104;19.656;2023-02-20T18:16:43;46.70;;;27.13;;
56122;SDS011;42426;46.104;19.656;2023-02-20T18:19:11;59.90;;;33.95;;
56122;SDS011;42426;46.104;19.656;2023-02-20T18:21:39;55.65;;;33.10;;
56122;SDS011;42426;46.104;19.656;2023-02-20T18:24:07;60.50;;;35.72;;
56122;SDS011;42426;46.104;19.656;2023-02-20T18:26:33;50.75;;;30.00;;
56122;SDS011;42426;46.104;19.656;2023-02-20T18:29:00;53.67;;;30.88;;
56122;SDS011;42426;46.104;19.656;2023-02-20T18:31:26;53.22;;;29.13;;
56122;SDS011;42426;46.104;19.656;2023-02-20T18:33:55;57.25;;;27.27;;
56122;SDS011;42426;46.104;19.656;2023-02-20T18:36:22;37.45;;;23.45;;
56122;SDS011;42426;46.104;19.656;2023-02-20T18:38:48;40.80;;;25.67;;
56122;SDS011;42426;46.104;19.656;2023-02-20T18:41:14;45.95;;;28.90;;
56122;SDS011;42426;46.104;19.656;2023-02-20T18:43:44;42.85;;;26.83;;
56122;SDS011;42426;46.104;19.656;2023-02-20T18:46:10;44.85;;;26.60;;
56122;SDS011;42426;46.104;19.656;2023-02-20T18:48:38;42.05;;;25.40;;
56122;SDS011;42426;46.104;19.656;2023-02-20T18:51:04;45.30;;;26.15;;
56122;SDS011;42426;46.104;19.656;2023-02-20T18:53:30;37.17;;;22.88;;
56122;SDS011;42426;46.104;19.656;2023-02-20T18:55:56;41.58;;;23.27;;
56122;SDS011;42426;46.104;19.656;2023-02-20T18:58:21;36.20;;;21.60;;
56122;SDS011;42426;46.104;19.656;2023-02-20T19:00:51;35.92;;;21.05;;
56122;SDS011;42426;46.104;19.656;2023-02-20T19:03:17;31.90;;;19.45;;
56122;SDS011;42426;46.104;19.656;2023-02-20T19:05:44;32.05;;;19.75;;
56122;SDS011;42426;46.104;19.656;2023-02-20T19:08:09;30.10;;;17.45;;
56122;SDS011;42426;46.104;19.656;2023-02-20T19:10:36;27.10;;;17.52;;
56122;SDS011;42426;46.104;19.656;2023-02-20T19:13:02;31.83;;;18.63;;
56122;SDS011;42426;46.104;19.656;2023-02-20T19:15:28;36.58;;;19.77;;
56122;SDS011;42426;46.104;19.656;2023-02-20T19:17:54;38.35;;;22.42;;
56122;SDS011;42426;46.104;19.656;2023-02-20T19:22:50;62.70;;;35.83;;
56122;SDS011;42426;46.104;19.656;2023-02-20T19:25:17;61.35;;;34.80;;
56122;SDS011;42426;46.104;19.656;2023-02-20T19:27:44;44.60;;;29.00;;
56122;SDS011;42426;46.104;19.656;2023-02-20T19:30:10;44.63;;;28.88;;
56122;SDS011;42426;46.104;19.656;2023-02-20T19:32:36;37.72;;;23.77;;
56122;SDS011;42426;46.104;19.656;2023-02-20T19:35:01;36.17;;;24.25;;
56122;SDS011;42426;46.104;19.656;2023-02-20T19:37:29;42.72;;;22.65;;
56122;SDS011;42426;46.104;19.656;2023-02-20T19:39:55;33.75;;;21.63;;
56122;SDS011;42426;46.104;19.656;2023-02-20T19:42:20;33.30;;;20.88;;
56122;SDS011;42426;46.104;19.656;2023-02-20T19:44:46;31.98;;;18.88;;
56122;SDS011;42426;46.104;19.656;2023-02-20T19:47:12;32.88;;;18.80;;
56122;SDS011;42426;46.104;19.656;2023-02-20T19:49:43;34.83;;;20.40;;
56122;SDS011;42426;46.104;19.656;2023-02-20T19:52:12;38.05;;;22.63;;
56122;SDS011;42426;46.104;19.656;2023-02-20T19:54:42;32.45;;;20.98;;
56122;SDS011;42426;46.104;19.656;2023-02-20T19:57:09;42.67;;;26.88;;
56122;SDS011;42426;46.104;19.656;2023-02-20T19:59:35;50.50;;;30.10;;
56122;SDS011;42426;46.104;19.656;2023-02-20T20:02:00;68.88;;;35.78;;
56122;SDS011;42426;46.104;19.656;2023-02-20T20:04:27;64.80;;;36.63;;
56122;SDS011;42426;46.104;19.656;2023-02-20T20:06:55;54.58;;;32.03;;
56122;SDS011;42426;46.104;19.656;2023-02-20T20:09:22;55.60;;;31.83;;
56122;SDS011;42426;46.104;19.656;2023-02-20T20:11:50;53.85;;;30.83;;
56122;SDS011;42426;46.104;19.656;2023-02-20T20:14:16;46.92;;;28.98;;
56122;SDS011;42426;46.104;19.656;2023-02-20T20:16:44;45.67;;;27.17;;
56122;SDS011;42426;46.104;19.656;2023-02-20T20:19:10;45.15;;;25.02;;
56122;SDS011;42426;46.104;19.656;2023-02-20T20:21:36;36.15;;;21.20;;
56122;SDS011;42426;46.104;19.656;2023-02-20T20:24:02;48.25;;;28.25;;
56122;SDS011;42426;46.104;19.656;2023-02-20T20:26:31;41.50;;;25.80;;
56122;SDS011;42426;46.104;19.656;2023-02-20T20:28:58;40.03;;;24.13;;
56122;SDS011;42426;46.104;19.656;2023-02-20T20:31:25;43.10;;;27.17;;
56122;SDS011;42426;46.104;19.656;2023-02-20T20:33:52;46.78;;;27.73;;
56122;SDS011;42426;46.104;19.656;2023-02-20T20:36:18;60.22;;;30.95;;
56122;SDS011;42426;46.104;19.656;2023-02-20T20:38:44;47.33;;;28.50;;
56122;SDS011;42426;46.104;19.656;2023-02-20T20:41:10;46.33;;;26.38;;
56122;SDS011;42426;46.104;19.656;2023-02-20T20:43:41;59.55;;;29.15;;
56122;SDS011;42426;46.104;19.656;2023-02-20T20:46:10;47.70;;;28.33;;
56122;SDS011;42426;46.104;19.656;2023-02-20T20:48:39;46.03;;;26.63;;
56122;SDS011;42426;46.104;19.656;2023-02-20T20:51:06;48.67;;;25.27;;
56122;SDS011;42426;46.104;19.656;2023-02-20T20:53:33;46.42;;;23.85;;
56122;SDS011;42426;46.104;19.656;2023-02-20T20:55:59;46.47;;;25.02;;
56122;SDS011;42426;46.104;19.656;2023-02-20T20:58:24;37.40;;;22.38;;
56122;SDS011;42426;46.104;19.656;2023-02-20T21:00:50;36.55;;;21.80;;
56122;SDS011;42426;46.104;19.656;2023-02-20T21:03:18;33.80;;;20.05;;
56122;SDS011;42426;46.104;19.656;2023-02-20T21:05:43;33.22;;;19.73;;
56122;SDS011;42426;46.104;19.656;2023-02-20T21:08:09;40.78;;;23.90;;
56122;SDS011;42426;46.104;19.656;2023-02-20T21:10:35;36.55;;;20.73;;
56122;SDS011;42426;46.104;19.656;2023-02-20T21:13:03;36.92;;;22.20;;
56122;SDS011;42426;46.104;19.656;2023-02-20T21:15:29;41.22;;;22.98;;
56122;SDS011;42426;46.104;19.656;2023-02-20T21:17:55;41.55;;;24.15;;
56122;SDS011;42426;46.104;19.656;2023-02-20T21:20:22;38.47;;;21.33;;
56122;SDS011;42426;46.104;19.656;2023-02-20T21:22:50;34.13;;;19.40;;
56122;SDS011;42426;46.104;19.656;2023-02-20T21:25:17;39.00;;;21.73;;
56122;SDS011;42426;46.104;19.656;2023-02-20T21:27:45;30.48;;;18.10;;
56122;SDS011;42426;46.104;19.656;2023-02-20T21:30:11;32.15;;;19.08;;
56122;SDS011;42426;46.104;19.656;2023-02-20T21:32:37;35.10;;;19.42;;
56122;SDS011;42426;46.104;19.656;2023-02-20T21:35:03;28.30;;;18.30;;
56122;SDS011;42426;46.104;19.656;2023-02-20T21:37:29;35.15;;;21.67;;
56122;SDS011;42426;46.104;19.656;2023-02-20T21:39:55;40.35;;;22.45;;
56122;SDS011;42426;46.104;19.656;2023-02-20T21:42:21;35.38;;;20.95;;
56122;SDS011;42426;46.104;19.656;2023-02-20T21:45:06;41.47;;;25.33;;
56122;SDS011;42426;46.104;19.656;2023-02-20T21:47:32;39.45;;;26.70;;
56122;SDS011;42426;46.104;19.656;2023-02-20T21:49:58;41.55;;;25.63;;
56122;SDS011;42426;46.104;19.656;2023-02-20T21:52:24;43.53;;;26.00;;
56122;SDS011;42426;46.104;19.656;2023-02-20T21:54:51;66.55;;;35.30;;
56122;SDS011;42426;46.104;19.656;2023-02-20T21:57:17;63.40;;;35.53;;
56122;SDS011;42426;46.104;19.656;2023-02-20T21:59:44;70.15;;;40.20;;
56122;SDS011;42426;46.104;19.656;2023-02-20T22:02:16;66.80;;;39.53;;
56122;SDS011;42426;46.104;19.656;2023-02-20T22:04:43;70.35;;;41.63;;
56122;SDS011;42426;46.104;19.656;2023-02-20T22:07:09;71.95;;;41.45;;
56122;SDS011;42426;46.104;19.656;2023-02-20T22:12:37;53.00;;;30.00;;
56122;SDS011;42426;46.104;19.656;2023-02-20T22:15:21;47.35;;;28.83;;
56122;SDS011;42426;46.104;19.656;2023-02-20T22:18:05;39.45;;;23.85;;
56122;SDS011;42426;46.104;19.656;2023-02-20T22:20:49;37.05;;;22.35;;
56122;SDS011;42426;46.104;19.656;2023-02-20T22:23:34;36.08;;;22.38;;
56122;SDS011;42426;46.104;19.656;2023-02-20T22:26:18;41.70;;;25.75;;
56122;SDS011;42426;46.104;19.656;2023-02-20T22:29:03;36.90;;;23.25;;
56122;SDS011;42426;46.104;19.656;2023-02-20T22:31:47;40.38;;;23.15;;
56122;SDS011;42426;46.104;19.656;2023-02-20T22:34:32;33.92;;;23.38;;
56122;SDS011;42426;46.104;19.656;2023-02-20T22:37:16;35.45;;;22.88;;
56122;SDS011;42426;46.104;19.656;2023-02-20T22:40:00;30.90;;;18.70;;